sensor_id;sensor_type;location;lat;lon;timestamp;P1;durP1;ratioP1;P2;durP2;ratioP2
3589;SDS011;1809;48.470;9.226;2023-03-16T00:01:40;9.33;;;4.70;;
3589;SDS011;1809;48.470;9.226;2023-03-16T00:04:05;6.53;;;5.23;;
3589;SDS011;1809;48.470;9.226;2023-03-16T00:06:31;8.67;;;4.67;;
3589;SDS011;1809;48.470;9.226;2023-03-16T00:08:56;5.33;;;4.83;;
3589;SDS011;1809;48.470;9.226;2023-03-16T00:11:25;9.10;;;5.07;;
3589;SDS011;1809;48.470;9.226;2023-03-16T00:13:52;7.63;;;5.97;;
3589;SDS011;1809;48.470;9.226;2023-03-16T00:16:17;7.60;;;5.70;;
3589;SDS011;1809;48.470;9.226;2023-03-16T00:18:42;7.70;;;6.23;;
3589;SDS011;1809;48.470;9.226;2023-03-16T00:21:08;12.43;;;5.53;;
3589;SDS011;1809;48.470;9.226;2023-03-16T00:23:35;10.67;;;6.77;;
3589;SDS011;1809;48.470;9.226;2023-03-16T00:26:05;14.60;;;7.03;;
3589;SDS011;1809;48.470;9.226;2023-03-16T00:28:32;12.57;;;7.73;;
3589;SDS011;1809;48.470;9.226;2023-03-16T00:31:02;13.07;;;7.50;;
3589;SDS011;1809;48.470;9.226;2023-03-16T00:33:29;8.10;;;6.70;;
3589;SDS011;1809;48.470;9.226;2023-03-16T00:35:58;11.00;;;7.67;;
3589;SDS011;1809;48.470;9.226;2023-03-16T00:38:33;8.90;;;6.37;;
3589;SDS011;1809;48.470;9.226;2023-03-16T00:41:03;10.23;;;6.70;;
3589;SDS011;1809;48.470;9.226;2023-03-16T00:43:31;7.23;;;6.33;;
3589;SDS011;1809;48.470;9.226;2023-03-16T00:46:04;10.27;;;7.17;;
3589;SDS011;1809;48.470;9.226;2023-03-16T00:48:34;9.67;;;7.03;;
3589;SDS011;1809;48.470;9.226;2023-03-16T00:51:04;10.50;;;7.20;;
3589;SDS011;1809;48.470;9.226;2023-03-16T00:53:32;8.30;;;7.10;;
3589;SDS011;1809;48.470;9.226;2023-03-16T00:55:58;8.83;;;6.00;;
3589;SDS011;1809;48.470;9.226;2023-03-16T00:58:26;11.10;;;7.80;;
3589;SDS011;1809;48.470;9.226;2023-03-16T01:00:52;9.67;;;7.33;;
3589;SDS011;1809;48.470;9.226;2023-03-16T01:03:18;11.20;;;7.80;;
3589;SDS011;1809;48.470;9.226;2023-03-16T01:05:44;11.17;;;7.80;;
3589;SDS011;1809;48.470;9.226;2023-03-16T01:08:09;10.80;;;7.57;;
3589;SDS011;1809;48.470;9.226;2023-03-16T01:10:35;11.70;;;8.80;;
3589;SDS011;1809;48.470;9.226;2023-03-16T01:13:00;13.17;;;8.70;;
3589;SDS011;1809;48.470;9.226;2023-03-16T01:15:27;10.87;;;8.17;;
3589;SDS011;1809;48.470;9.226;2023-03-16T01:17:53;12.17;;;8.57;;
3589;SDS011;1809;48.470;9.226;2023-03-16T01:20:18;12.40;;;8.37;;
3589;SDS011;1809;48.470;9.226;2023-03-16T01:22:44;15.23;;;8.90;;
3589;SDS011;1809;48.470;9.226;2023-03-16T01:25:10;16.70;;;10.40;;
3589;SDS011;1809;48.470;9.226;2023-03-16T01:27:36;15.37;;;8.60;;
3589;SDS011;1809;48.470;9.226;2023-03-16T01:30:02;15.47;;;9.80;;
3589;SDS011;1809;48.470;9.226;2023-03-16T01:32:29;14.13;;;9.83;;
3589;SDS011;1809;48.470;9.226;2023-03-16T01:34:54;16.50;;;10.27;;
3589;SDS011;1809;48.470;9.226;2023-03-16T01:37:20;17.43;;;9.87;;
3589;SDS011;1809;48.470;9.226;2023-03-16T01:39:47;13.53;;;9.90;;
3589;SDS011;1809;48.470;9.226;2023-03-16T01:42:12;10.83;;;8.70;;
3589;SDS011;1809;48.470;9.226;2023-03-16T01:44:48;13.47;;;9.97;;
3589;SDS011;1809;48.470;9.226;2023-03-16T01:47:14;19.60;;;9.90;;
3589;SDS011;1809;48.470;9.226;2023-03-16T01:49:40;11.80;;;9.10;;
3589;SDS011;1809;48.470;9.226;2023-03-16T01:52:10;19.77;;;11.50;;
3589;SDS011;1809;48.470;9.226;2023-03-16T01:54:44;18.40;;;10.00;;
3589;SDS011;1809;48.470;9.226;2023-03-16T01:57:15;13.53;;;9.80;;
3589;SDS011;1809;48.470;9.226;2023-03-16T02:02:22;13.77;;;9.77;;
3589;SDS011;1809;48.470;9.226;2023-03-16T02:05:01;13.63;;;9.60;;
3589;SDS011;1809;48.470;9.226;2023-03-16T02:07:33;13.63;;;9.57;;
3589;SDS011;1809;48.470;9.226;2023-03-16T02:10:02;13.67;;;9.53;;
3589;SDS011;1809;48.470;9.226;2023-03-16T02:12:30;19.27;;;10.10;;
3589;SDS011;1809;48.470;9.226;2023-03-16T02:14:56;16.93;;;10.50;;
3589;SDS011;1809;48.470;9.226;2023-03-16T02:17:22;15.37;;;9.60;;
3589;SDS011;1809;48.470;9.226;2023-03-16T02:22:42;14.60;;;9.40;;
3589;SDS011;1809;48.470;9.226;2023-03-16T02:25:11;14.20;;;9.30;;
3589;SDS011;1809;48.470;9.226;2023-03-16T02:27:40;14.40;;;8.87;;
3589;SDS011;1809;48.470;9.226;2023-03-16T02:30:16;17.63;;;9.23;;
3589;SDS011;1809;48.470;9.226;2023-03-16T02:32:43;14.07;;;9.73;;
3589;SDS011;1809;48.470;9.226;2023-03-16T02:35:11;15.27;;;10.47;;
3589;SDS011;1809;48.470;9.226;2023-03-16T02:37:37;16.67;;;9.43;;
3589;SDS011;1809;48.470;9.226;2023-03-16T02:40:14;14.73;;;9.20;;
3589;SDS011;1809;48.470;9.226;2023-03-16T02:42:41;14.33;;;9.13;;
3589;SDS011;1809;48.470;9.226;2023-03-16T02:45:07;16.07;;;9.80;;
3589;SDS011;1809;48.470;9.226;2023-03-16T02:47:34;16.50;;;8.97;;
3589;SDS011;1809;48.470;9.226;2023-03-16T02:50:03;13.53;;;9.40;;
3589;SDS011;1809;48.470;9.226;2023-03-16T02:52:33;18.57;;;9.67;;
3589;SDS011;1809;48.470;9.226;2023-03-16T02:55:00;11.47;;;8.87;;
3589;SDS011;1809;48.470;9.226;2023-03-16T02:57:25;12.83;;;9.27;;
3589;SDS011;1809;48.470;9.226;2023-03-16T02:59:51;13.60;;;9.43;;
3589;SDS011;1809;48.470;9.226;2023-03-16T03:02:16;15.10;;;9.03;;
3589;SDS011;1809;48.470;9.226;2023-03-16T03:04:42;9.20;;;7.60;;
3589;SDS011;1809;48.470;9.226;2023-03-16T03:07:10;14.17;;;9.80;;
3589;SDS011;1809;48.470;9.226;2023-03-16T03:09:39;18.77;;;10.33;;
3589;SDS011;1809;48.470;9.226;2023-03-16T03:12:06;14.30;;;9.10;;
3589;SDS011;1809;48.470;9.226;2023-03-16T03:14:35;11.13;;;8.83;;
3589;SDS011;1809;48.470;9.226;2023-03-16T03:17:04;11.80;;;8.10;;
3589;SDS011;1809;48.470;9.226;2023-03-16T03:19:32;13.07;;;9.53;;
3589;SDS011;1809;48.470;9.226;2023-03-16T03:21:57;14.27;;;9.20;;
3589;SDS011;1809;48.470;9.226;2023-03-16T03:24:23;11.57;;;8.80;;
3589;SDS011;1809;48.470;9.226;2023-03-16T03:26:49;13.80;;;8.80;;
3589;SDS011;1809;48.470;9.226;2023-03-16T03:29:16;13.30;;;9.33;;
3589;SDS011;1809;48.470;9.226;2023-03-16T03:31:41;10.57;;;7.83;;
3589;SDS011;1809;48.470;9.226;2023-03-16T03:34:08;12.93;;;9.43;;
3589;SDS011;1809;48.470;9.226;2023-03-16T03:36:33;14.93;;;8.93;;
3589;SDS011;1809;48.470;9.226;2023-03-16T03:38:59;16.23;;;9.73;;
3589;SDS011;1809;48.470;9.226;2023-03-16T03:41:28;10.93;;;8.67;;
3589;SDS011;1809;48.470;9.226;2023-03-16T03:43:54;13.30;;;9.27;;
3589;SDS011;1809;48.470;9.226;2023-03-16T03:46:19;13.37;;;8.87;;
3589;SDS011;1809;48.470;9.226;2023-03-16T03:48:45;13.80;;;8.73;;
3589;SDS011;1809;48.470;9.226;2023-03-16T03:51:10;17.47;;;10.37;;
3589;SDS011;1809;48.470;9.226;2023-03-16T03:53:35;15.40;;;8.60;;
3589;SDS011;1809;48.470;9.226;2023-03-16T03:56:01;14.63;;;9.10;;
3589;SDS011;1809;48.470;9.226;2023-03-16T03:58:26;15.00;;;9.83;;
3589;SDS011;1809;48.470;9.226;2023-03-16T04:00:51;20.20;;;10.60;;
3589;SDS011;1809;48.470;9.226;2023-03-16T04:03:17;10.53;;;8.47;;
3589;SDS011;1809;48.470;9.226;2023-03-16T04:05:42;17.60;;;9.80;;
3589;SDS011;1809;48.470;9.226;2023-03-16T04:08:07;13.80;;;8.53;;
3589;SDS011;1809;48.470;9.226;2023-03-16T04:10:33;13.10;;;9.10;;
3589;SDS011;1809;48.470;9.226;2023-03-16T04:12:58;14.57;;;8.87;;
3589;SDS011;1809;48.470;9.226;2023-03-16T04:15:24;16.60;;;10.07;;
3589;SDS011;1809;48.470;9.226;2023-03-16T04:17:50;12.80;;;8.90;;
3589;SDS011;1809;48.470;9.226;2023-03-16T04:20:18;14.20;;;9.20;;
3589;SDS011;1809;48.470;9.226;2023-03-16T04:22:45;12.47;;;9.03;;
3589;SDS011;1809;48.470;9.226;2023-03-16T04:25:12;11.63;;;8.23;;
3589;SDS011;1809;48.470;9.226;2023-03-16T04:27:40;12.23;;;7.87;;
3589;SDS011;1809;48.470;9.226;2023-03-16T04:30:07;11.63;;;7.33;;
3589;SDS011;1809;48.470;9.226;2023-03-16T04:32:36;13.33;;;8.27;;
3589;SDS011;1809;48.470;9.226;2023-03-16T04:35:01;14.13;;;8.50;;
3589;SDS011;1809;48.470;9.226;2023-03-16T04:37:27;10.53;;;8.90;;
3589;SDS011;1809;48.470;9.226;2023-03-16T04:39:52;14.03;;;9.30;;
3589;SDS011;1809;48.470;9.226;2023-03-16T04:42:18;14.00;;;8.47;;
3589;SDS011;1809;48.470;9.226;2023-03-16T04:44:43;16.17;;;8.87;;
3589;SDS011;1809;48.470;9.226;2023-03-16T04:47:09;12.50;;;8.13;;
3589;SDS011;1809;48.470;9.226;2023-03-16T04:49:35;10.10;;;7.90;;
3589;SDS011;1809;48.470;9.226;2023-03-16T04:52:01;16.97;;;8.43;;
3589;SDS011;1809;48.470;9.226;2023-03-16T04:54:26;15.67;;;9.00;;
3589;SDS011;1809;48.470;9.226;2023-03-16T04:56:52;10.27;;;7.37;;
3589;SDS011;1809;48.470;9.226;2023-03-16T04:59:17;11.00;;;8.00;;
3589;SDS011;1809;48.470;9.226;2023-03-16T05:01:43;13.97;;;8.67;;
3589;SDS011;1809;48.470;9.226;2023-03-16T05:04:08;13.17;;;7.90;;
3589;SDS011;1809;48.470;9.226;2023-03-16T05:06:33;12.53;;;8.43;;
3589;SDS011;1809;48.470;9.226;2023-03-16T05:08:59;12.40;;;7.83;;
3589;SDS011;1809;48.470;9.226;2023-03-16T05:11:25;12.00;;;8.53;;
3589;SDS011;1809;48.470;9.226;2023-03-16T05:13:50;11.10;;;7.93;;
3589;SDS011;1809;48.470;9.226;2023-03-16T05:16:16;14.37;;;8.77;;
3589;SDS011;1809;48.470;9.226;2023-03-16T05:18:41;14.53;;;8.33;;
3589;SDS011;1809;48.470;9.226;2023-03-16T05:21:06;12.03;;;8.03;;
3589;SDS011;1809;48.470;9.226;2023-03-16T05:23:32;12.70;;;7.33;;
3589;SDS011;1809;48.470;9.226;2023-03-16T05:25:57;11.43;;;7.80;;
3589;SDS011;1809;48.470;9.226;2023-03-16T05:28:24;8.83;;;7.00;;
3589;SDS011;1809;48.470;9.226;2023-03-16T05:30:49;11.83;;;8.63;;
3589;SDS011;1809;48.470;9.226;2023-03-16T05:33:15;13.60;;;8.17;;
3589;SDS011;1809;48.470;9.226;2023-03-16T05:35:41;12.07;;;8.13;;
3589;SDS011;1809;48.470;9.226;2023-03-16T05:38:07;10.83;;;7.53;;
3589;SDS011;1809;48.470;9.226;2023-03-16T05:40:34;13.53;;;8.80;;
3589;SDS011;1809;48.470;9.226;2023-03-16T05:43:01;11.80;;;7.90;;
3589;SDS011;1809;48.470;9.226;2023-03-16T05:45:26;10.37;;;7.70;;
3589;SDS011;1809;48.470;9.226;2023-03-16T05:47:52;12.77;;;8.67;;
3589;SDS011;1809;48.470;9.226;2023-03-16T05:50:17;12.10;;;7.90;;
3589;SDS011;1809;48.470;9.226;2023-03-16T05:52:43;16.70;;;9.67;;
3589;SDS011;1809;48.470;9.226;2023-03-16T05:55:09;15.07;;;8.77;;
3589;SDS011;1809;48.470;9.226;2023-03-16T05:57:36;10.97;;;7.73;;
3589;SDS011;1809;48.470;9.226;2023-03-16T06:00:02;11.87;;;7.37;;
3589;SDS011;1809;48.470;9.226;2023-03-16T06:02:37;10.67;;;8.17;;
3589;SDS011;1809;48.470;9.226;2023-03-16T06:05:02;15.20;;;8.87;;
3589;SDS011;1809;48.470;9.226;2023-03-16T06:07:28;10.50;;;7.10;;
3589;SDS011;1809;48.470;9.226;2023-03-16T06:09:53;19.30;;;8.10;;
3589;SDS011;1809;48.470;9.226;2023-03-16T06:12:19;9.13;;;6.60;;
3589;SDS011;1809;48.470;9.226;2023-03-16T06:14:44;11.13;;;6.80;;
3589;SDS011;1809;48.470;9.226;2023-03-16T06:17:09;11.27;;;7.73;;
3589;SDS011;1809;48.470;9.226;2023-03-16T06:19:35;10.90;;;7.50;;
3589;SDS011;1809;48.470;9.226;2023-03-16T06:22:00;13.90;;;8.40;;
3589;SDS011;1809;48.470;9.226;2023-03-16T06:24:26;11.97;;;7.67;;
3589;SDS011;1809;48.470;9.226;2023-03-16T06:26:51;14.63;;;8.90;;
3589;SDS011;1809;48.470;9.226;2023-03-16T06:29:17;11.13;;;8.67;;
3589;SDS011;1809;48.470;9.226;2023-03-16T06:31:42;11.97;;;8.63;;
3589;SDS011;1809;48.470;9.226;2023-03-16T06:34:07;14.87;;;8.73;;
3589;SDS011;1809;48.470;9.226;2023-03-16T06:36:33;11.80;;;9.13;;
3589;SDS011;1809;48.470;9.226;2023-03-16T06:38:58;11.13;;;7.67;;
3589;SDS011;1809;48.470;9.226;2023-03-16T06:41:24;15.23;;;8.23;;
3589;SDS011;1809;48.470;9.226;2023-03-16T06:43:49;12.30;;;8.27;;
3589;SDS011;1809;48.470;9.226;2023-03-16T06:46:14;13.20;;;8.83;;
3589;SDS011;1809;48.470;9.226;2023-03-16T06:48:39;10.57;;;7.50;;
3589;SDS011;1809;48.470;9.226;2023-03-16T06:51:05;12.40;;;7.80;;
3589;SDS011;1809;48.470;9.226;2023-03-16T06:53:31;12.23;;;8.50;;
3589;SDS011;1809;48.470;9.226;2023-03-16T06:55:57;11.13;;;8.30;;
3589;SDS011;1809;48.470;9.226;2023-03-16T06:58:22;12.20;;;8.70;;
3589;SDS011;1809;48.470;9.226;2023-03-16T07:00:48;15.47;;;8.17;;
3589;SDS011;1809;48.470;9.226;2023-03-16T07:03:16;10.77;;;7.23;;
3589;SDS011;1809;48.470;9.226;2023-03-16T07:05:43;11.90;;;8.50;;
3589;SDS011;1809;48.470;9.226;2023-03-16T07:08:09;10.77;;;7.60;;
3589;SDS011;1809;48.470;9.226;2023-03-16T07:10:39;11.87;;;6.93;;
3589;SDS011;1809;48.470;9.226;2023-03-16T07:13:04;19.17;;;8.23;;
3589;SDS011;1809;48.470;9.226;2023-03-16T07:15:30;12.00;;;8.27;;
3589;SDS011;1809;48.470;9.226;2023-03-16T07:18:01;12.53;;;8.20;;
3589;SDS011;1809;48.470;9.226;2023-03-16T07:20:30;12.60;;;8.73;;
3589;SDS011;1809;48.470;9.226;2023-03-16T07:22:57;13.23;;;8.00;;
3589;SDS011;1809;48.470;9.226;2023-03-16T07:25:26;11.13;;;7.87;;
3589;SDS011;1809;48.470;9.226;2023-03-16T07:27:52;10.43;;;7.40;;
3589;SDS011;1809;48.470;9.226;2023-03-16T07:30:23;12.60;;;7.93;;
3589;SDS011;1809;48.470;9.226;2023-03-16T07:32:49;12.77;;;8.20;;
3589;SDS011;1809;48.470;9.226;2023-03-16T07:35:15;9.87;;;7.80;;
3589;SDS011;1809;48.470;9.226;2023-03-16T07:37:41;12.70;;;8.33;;
3589;SDS011;1809;48.470;9.226;2023-03-16T07:40:10;15.20;;;8.60;;
3589;SDS011;1809;48.470;9.226;2023-03-16T07:42:36;17.30;;;7.70;;
3589;SDS011;1809;48.470;9.226;2023-03-16T07:45:02;11.90;;;7.20;;
3589;SDS011;1809;48.470;9.226;2023-03-16T07:47:29;20.30;;;8.80;;
3589;SDS011;1809;48.470;9.226;2023-03-16T07:49:55;12.30;;;7.10;;
3589;SDS011;1809;48.470;9.226;2023-03-16T07:52:21;12.83;;;8.00;;
3589;SDS011;1809;48.470;9.226;2023-03-16T07:54:48;9.67;;;7.33;;
3589;SDS011;1809;48.470;9.226;2023-03-16T07:57:14;14.10;;;8.30;;
3589;SDS011;1809;48.470;9.226;2023-03-16T07:59:40;10.00;;;7.17;;
3589;SDS011;1809;48.470;9.226;2023-03-16T08:02:08;9.40;;;6.80;;
3589;SDS011;1809;48.470;9.226;2023-03-16T08:04:38;9.30;;;7.43;;
3589;SDS011;1809;48.470;9.226;2023-03-16T08:07:06;11.13;;;7.20;;
3589;SDS011;1809;48.470;9.226;2023-03-16T08:09:36;14.43;;;5.87;;
3589;SDS011;1809;48.470;9.226;2023-03-16T08:12:02;7.43;;;6.10;;
3589;SDS011;1809;48.470;9.226;2023-03-16T08:14:28;6.67;;;6.03;;
3589;SDS011;1809;48.470;9.226;2023-03-16T08:16:55;8.43;;;6.43;;
3589;SDS011;1809;48.470;9.226;2023-03-16T08:19:20;8.77;;;5.87;;
3589;SDS011;1809;48.470;9.226;2023-03-16T08:21:46;10.80;;;6.17;;
3589;SDS011;1809;48.470;9.226;2023-03-16T08:24:12;7.73;;;6.80;;
3589;SDS011;1809;48.470;9.226;2023-03-16T08:26:37;9.33;;;6.13;;
3589;SDS011;1809;48.470;9.226;2023-03-16T08:29:03;16.67;;;7.00;;
3589;SDS011;1809;48.470;9.226;2023-03-16T08:31:28;6.97;;;5.27;;
3589;SDS011;1809;48.470;9.226;2023-03-16T08:33:55;6.57;;;5.20;;
3589;SDS011;1809;48.470;9.226;2023-03-16T08:36:21;5.73;;;5.10;;
3589;SDS011;1809;48.470;9.226;2023-03-16T08:38:47;6.30;;;5.13;;
3589;SDS011;1809;48.470;9.226;2023-03-16T08:41:14;5.63;;;5.13;;
3589;SDS011;1809;48.470;9.226;2023-03-16T08:43:41;6.60;;;5.43;;
3589;SDS011;1809;48.470;9.226;2023-03-16T08:46:11;7.77;;;5.40;;
3589;SDS011;1809;48.470;9.226;2023-03-16T08:48:40;7.03;;;4.90;;
3589;SDS011;1809;48.470;9.226;2023-03-16T08:51:06;17.03;;;5.60;;
3589;SDS011;1809;48.470;9.226;2023-03-16T08:53:34;7.93;;;5.93;;
3589;SDS011;1809;48.470;9.226;2023-03-16T08:56:04;5.70;;;5.20;;
3589;SDS011;1809;48.470;9.226;2023-03-16T08:58:32;4.90;;;4.00;;
3589;SDS011;1809;48.470;9.226;2023-03-16T09:00:59;3.73;;;3.37;;
3589;SDS011;1809;48.470;9.226;2023-03-16T09:03:26;5.33;;;3.77;;
3589;SDS011;1809;48.470;9.226;2023-03-16T09:05:52;4.47;;;3.50;;
3589;SDS011;1809;48.470;9.226;2023-03-16T09:08:19;4.03;;;3.73;;
3589;SDS011;1809;48.470;9.226;2023-03-16T09:10:47;4.10;;;3.17;;
3589;SDS011;1809;48.470;9.226;2023-03-16T09:13:12;3.63;;;3.33;;
3589;SDS011;1809;48.470;9.226;2023-03-16T09:15:38;2.93;;;2.73;;
3589;SDS011;1809;48.470;9.226;2023-03-16T09:18:04;8.43;;;3.63;;
3589;SDS011;1809;48.470;9.226;2023-03-16T09:20:30;6.73;;;3.23;;
3589;SDS011;1809;48.470;9.226;2023-03-16T09:22:55;4.60;;;2.63;;
3589;SDS011;1809;48.470;9.226;2023-03-16T09:25:22;5.83;;;3.40;;
3589;SDS011;1809;48.470;9.226;2023-03-16T09:27:49;11.87;;;3.90;;
3589;SDS011;1809;48.470;9.226;2023-03-16T09:30:16;3.93;;;2.80;;
3589;SDS011;1809;48.470;9.226;2023-03-16T09:32:45;3.30;;;3.00;;
3589;SDS011;1809;48.470;9.226;2023-03-16T09:35:12;2.97;;;2.60;;
3589;SDS011;1809;48.470;9.226;2023-03-16T09:37:41;3.57;;;2.33;;
3589;SDS011;1809;48.470;9.226;2023-03-16T09:40:13;3.50;;;2.73;;
3589;SDS011;1809;48.470;9.226;2023-03-16T09:42:46;4.00;;;2.23;;
3589;SDS011;1809;48.470;9.226;2023-03-16T09:45:39;3.30;;;3.00;;
3589;SDS011;1809;48.470;9.226;2023-03-16T09:48:32;8.07;;;2.90;;
3589;SDS011;1809;48.470;9.226;2023-03-16T09:51:00;1.77;;;1.53;;
3589;SDS011;1809;48.470;9.226;2023-03-16T09:53:33;4.13;;;2.43;;
3589;SDS011;1809;48.470;9.226;2023-03-16T09:56:04;2.60;;;2.40;;
3589;SDS011;1809;48.470;9.226;2023-03-16T09:58:35;2.27;;;2.07;;
3589;SDS011;1809;48.470;9.226;2023-03-16T10:01:15;5.33;;;2.70;;
3589;SDS011;1809;48.470;9.226;2023-03-16T10:03:57;2.70;;;1.90;;
3589;SDS011;1809;48.470;9.226;2023-03-16T10:06:36;4.70;;;2.20;;
3589;SDS011;1809;48.470;9.226;2023-03-16T10:09:27;2.50;;;2.30;;
3589;SDS011;1809;48.470;9.226;2023-03-16T10:12:14;2.80;;;1.80;;
3589;SDS011;1809;48.470;9.226;2023-03-16T10:14:43;2.10;;;1.90;;
3589;SDS011;1809;48.470;9.226;2023-03-16T10:17:18;6.40;;;2.30;;
3589;SDS011;1809;48.470;9.226;2023-03-16T10:19:52;2.07;;;1.87;;
3589;SDS011;1809;48.470;9.226;2023-03-16T10:22:32;1.97;;;1.87;;
3589;SDS011;1809;48.470;9.226;2023-03-16T10:27:49;5.83;;;2.07;;
3589;SDS011;1809;48.470;9.226;2023-03-16T10:33:22;2.20;;;2.00;;
3589;SDS011;1809;48.470;9.226;2023-03-16T10:38:26;2.20;;;2.10;;
3589;SDS011;1809;48.470;9.226;2023-03-16T10:41:02;2.47;;;2.27;;
3589;SDS011;1809;48.470;9.226;2023-03-16T10:43:44;2.77;;;2.60;;
3589;SDS011;1809;48.470;9.226;2023-03-16T10:46:16;2.90;;;1.90;;
3589;SDS011;1809;48.470;9.226;2023-03-16T10:48:50;3.23;;;2.27;;
3589;SDS011;1809;48.470;9.226;2023-03-16T10:51:17;2.27;;;2.07;;
3589;SDS011;1809;48.470;9.226;2023-03-16T10:53:47;2.30;;;2.20;;
3589;SDS011;1809;48.470;9.226;2023-03-16T10:56:18;2.77;;;2.20;;
3589;SDS011;1809;48.470;9.226;2023-03-16T10:58:47;2.03;;;1.87;;
3589;SDS011;1809;48.470;9.226;2023-03-16T11:01:23;4.47;;;2.50;;
3589;SDS011;1809;48.470;9.226;2023-03-16T11:03:54;3.37;;;2.50;;
3589;SDS011;1809;48.470;9.226;2023-03-16T11:08:54;5.53;;;3.43;;
3589;SDS011;1809;48.470;9.226;2023-03-16T11:11:33;2.27;;;2.17;;
3589;SDS011;1809;48.470;9.226;2023-03-16T11:14:00;2.57;;;2.37;;
3589;SDS011;1809;48.470;9.226;2023-03-16T11:16:38;3.93;;;2.83;;
3589;SDS011;1809;48.470;9.226;2023-03-16T11:19:25;4.33;;;2.60;;
3589;SDS011;1809;48.470;9.226;2023-03-16T11:27:40;10.13;;;2.77;;
3589;SDS011;1809;48.470;9.226;2023-03-16T11:30:32;4.30;;;2.80;;
3589;SDS011;1809;48.470;9.226;2023-03-16T11:33:11;2.60;;;2.40;;
3589;SDS011;1809;48.470;9.226;2023-03-16T11:43:54;5.20;;;2.43;;
3589;SDS011;1809;48.470;9.226;2023-03-16T11:49:30;2.80;;;2.53;;
3589;SDS011;1809;48.470;9.226;2023-03-16T11:58:10;2.77;;;2.57;;
3589;SDS011;1809;48.470;9.226;2023-03-16T12:03:26;3.40;;;3.10;;
3589;SDS011;1809;48.470;9.226;2023-03-16T12:06:29;4.20;;;2.67;;
3589;SDS011;1809;48.470;9.226;2023-03-16T12:14:35;3.03;;;2.20;;
3589;SDS011;1809;48.470;9.226;2023-03-16T12:19:42;3.03;;;2.73;;
3589;SDS011;1809;48.470;9.226;2023-03-16T12:22:19;3.13;;;2.90;;
3589;SDS011;1809;48.470;9.226;2023-03-16T12:24:57;3.47;;;3.17;;
3589;SDS011;1809;48.470;9.226;2023-03-16T12:27:28;2.60;;;2.40;;
3589;SDS011;1809;48.470;9.226;2023-03-16T12:32:48;2.60;;;2.50;;
3589;SDS011;1809;48.470;9.226;2023-03-16T12:38:15;3.23;;;2.50;;
3589;SDS011;1809;48.470;9.226;2023-03-16T12:40:47;2.57;;;2.37;;
3589;SDS011;1809;48.470;9.226;2023-03-16T12:43:51;2.60;;;2.10;;
3589;SDS011;1809;48.470;9.226;2023-03-16T12:46:55;2.50;;;2.00;;
3589;SDS011;1809;48.470;9.226;2023-03-16T12:49:32;2.70;;;2.50;;
3589;SDS011;1809;48.470;9.226;2023-03-16T12:52:01;5.23;;;3.30;;
3589;SDS011;1809;48.470;9.226;2023-03-16T12:55:06;3.57;;;2.37;;
3589;SDS011;1809;48.470;9.226;2023-03-16T12:57:58;2.50;;;2.10;;
3589;SDS011;1809;48.470;9.226;2023-03-16T13:00:35;3.13;;;2.60;;
3589;SDS011;1809;48.470;9.226;2023-03-16T13:03:04;2.20;;;2.10;;
3589;SDS011;1809;48.470;9.226;2023-03-16T13:05:35;8.80;;;2.67;;
3589;SDS011;1809;48.470;9.226;2023-03-16T13:08:12;3.70;;;2.10;;
3589;SDS011;1809;48.470;9.226;2023-03-16T13:10:39;2.90;;;2.10;;
3589;SDS011;1809;48.470;9.226;2023-03-16T13:13:09;4.13;;;2.20;;
3589;SDS011;1809;48.470;9.226;2023-03-16T13:15:37;3.07;;;2.43;;
3589;SDS011;1809;48.470;9.226;2023-03-16T13:18:05;2.93;;;2.00;;
3589;SDS011;1809;48.470;9.226;2023-03-16T13:20:53;4.00;;;2.93;;
3589;SDS011;1809;48.470;9.226;2023-03-16T13:23:24;9.10;;;2.40;;
3589;SDS011;1809;48.470;9.226;2023-03-16T13:28:37;2.00;;;1.90;;
3589;SDS011;1809;48.470;9.226;2023-03-16T13:31:03;2.90;;;1.80;;
3589;SDS011;1809;48.470;9.226;2023-03-16T13:33:31;2.00;;;1.90;;
3589;SDS011;1809;48.470;9.226;2023-03-16T13:36:01;2.30;;;2.10;;
3589;SDS011;1809;48.470;9.226;2023-03-16T13:38:30;2.60;;;2.37;;
3589;SDS011;1809;48.470;9.226;2023-03-16T13:41:08;4.20;;;2.03;;
3589;SDS011;1809;48.470;9.226;2023-03-16T13:43:40;2.10;;;2.00;;
3589;SDS011;1809;48.470;9.226;2023-03-16T13:46:15;3.43;;;2.50;;
3589;SDS011;1809;48.470;9.226;2023-03-16T13:48:41;2.67;;;2.47;;
3589;SDS011;1809;48.470;9.226;2023-03-16T13:51:12;2.47;;;2.30;;
3589;SDS011;1809;48.470;9.226;2023-03-16T13:53:40;2.70;;;2.50;;
3589;SDS011;1809;48.470;9.226;2023-03-16T13:56:07;4.50;;;2.13;;
3589;SDS011;1809;48.470;9.226;2023-03-16T13:58:38;3.50;;;3.20;;
3589;SDS011;1809;48.470;9.226;2023-03-16T14:01:10;3.63;;;3.00;;
3589;SDS011;1809;48.470;9.226;2023-03-16T14:03:44;4.27;;;2.87;;
3589;SDS011;1809;48.470;9.226;2023-03-16T14:06:20;2.87;;;2.67;;
3589;SDS011;1809;48.470;9.226;2023-03-16T14:08:52;2.60;;;2.50;;
3589;SDS011;1809;48.470;9.226;2023-03-16T14:11:22;4.53;;;2.30;;
3589;SDS011;1809;48.470;9.226;2023-03-16T14:13:53;3.33;;;2.27;;
3589;SDS011;1809;48.470;9.226;2023-03-16T14:16:24;3.10;;;2.90;;
3589;SDS011;1809;48.470;9.226;2023-03-16T14:19:00;3.03;;;2.80;;
3589;SDS011;1809;48.470;9.226;2023-03-16T14:21:28;3.87;;;3.17;;
3589;SDS011;1809;48.470;9.226;2023-03-16T14:23:57;3.37;;;3.07;;
3589;SDS011;1809;48.470;9.226;2023-03-16T14:26:24;4.73;;;3.10;;
3589;SDS011;1809;48.470;9.226;2023-03-16T14:29:07;3.67;;;3.43;;
3589;SDS011;1809;48.470;9.226;2023-03-16T14:31:41;4.23;;;3.13;;
3589;SDS011;1809;48.470;9.226;2023-03-16T14:34:18;3.30;;;3.00;;
3589;SDS011;1809;48.470;9.226;2023-03-16T14:36:47;3.67;;;2.40;;
3589;SDS011;1809;48.470;9.226;2023-03-16T14:39:14;3.60;;;3.07;;
3589;SDS011;1809;48.470;9.226;2023-03-16T14:41:43;3.13;;;2.80;;
3589;SDS011;1809;48.470;9.226;2023-03-16T14:44:17;4.50;;;3.53;;
3589;SDS011;1809;48.470;9.226;2023-03-16T14:46:45;3.50;;;3.00;;
3589;SDS011;1809;48.470;9.226;2023-03-16T14:49:18;4.13;;;3.73;;
3589;SDS011;1809;48.470;9.226;2023-03-16T14:51:47;4.23;;;3.50;;
3589;SDS011;1809;48.470;9.226;2023-03-16T14:54:15;3.50;;;3.10;;
3589;SDS011;1809;48.470;9.226;2023-03-16T14:56:42;6.10;;;3.33;;
3589;SDS011;1809;48.470;9.226;2023-03-16T14:59:12;3.60;;;3.23;;
3589;SDS011;1809;48.470;9.226;2023-03-16T15:01:37;3.70;;;3.40;;
3589;SDS011;1809;48.470;9.226;2023-03-16T15:04:03;4.20;;;3.73;;
3589;SDS011;1809;48.470;9.226;2023-03-16T15:06:30;4.73;;;3.50;;
3589;SDS011;1809;48.470;9.226;2023-03-16T15:08:56;5.10;;;4.57;;
3589;SDS011;1809;48.470;9.226;2023-03-16T15:11:22;6.37;;;4.47;;
3589;SDS011;1809;48.470;9.226;2023-03-16T15:13:50;6.50;;;4.53;;
3589;SDS011;1809;48.470;9.226;2023-03-16T15:16:15;6.20;;;4.83;;
3589;SDS011;1809;48.470;9.226;2023-03-16T15:18:41;5.67;;;4.53;;
3589;SDS011;1809;48.470;9.226;2023-03-16T15:21:13;5.53;;;4.13;;
3589;SDS011;1809;48.470;9.226;2023-03-16T15:23:42;5.40;;;3.67;;
3589;SDS011;1809;48.470;9.226;2023-03-16T15:26:10;8.03;;;3.97;;
3589;SDS011;1809;48.470;9.226;2023-03-16T15:28:36;5.30;;;4.10;;
3589;SDS011;1809;48.470;9.226;2023-03-16T15:31:02;7.30;;;3.80;;
3589;SDS011;1809;48.470;9.226;2023-03-16T15:33:28;4.30;;;3.90;;
3589;SDS011;1809;48.470;9.226;2023-03-16T15:35:54;7.27;;;4.57;;
3589;SDS011;1809;48.470;9.226;2023-03-16T15:38:25;5.30;;;4.57;;
3589;SDS011;1809;48.470;9.226;2023-03-16T15:40:56;4.20;;;3.90;;
3589;SDS011;1809;48.470;9.226;2023-03-16T15:43:25;3.77;;;3.47;;
3589;SDS011;1809;48.470;9.226;2023-03-16T15:45:54;4.93;;;4.53;;
3589;SDS011;1809;48.470;9.226;2023-03-16T15:48:21;3.90;;;3.60;;
3589;SDS011;1809;48.470;9.226;2023-03-16T15:51:06;11.30;;;4.97;;
3589;SDS011;1809;48.470;9.226;2023-03-16T15:53:37;8.20;;;4.47;;
3589;SDS011;1809;48.470;9.226;2023-03-16T15:56:23;7.50;;;4.63;;
3589;SDS011;1809;48.470;9.226;2023-03-16T15:58:54;4.97;;;4.50;;
3589;SDS011;1809;48.470;9.226;2023-03-16T16:01:25;4.80;;;4.30;;
3589;SDS011;1809;48.470;9.226;2023-03-16T16:03:59;5.80;;;5.20;;
3589;SDS011;1809;48.470;9.226;2023-03-16T16:06:24;4.70;;;4.10;;
3589;SDS011;1809;48.470;9.226;2023-03-16T16:08:51;7.23;;;4.90;;
3589;SDS011;1809;48.470;9.226;2023-03-16T16:11:18;7.80;;;4.83;;
3589;SDS011;1809;48.470;9.226;2023-03-16T16:13:47;5.00;;;4.00;;
3589;SDS011;1809;48.470;9.226;2023-03-16T16:16:14;4.80;;;4.33;;
3589;SDS011;1809;48.470;9.226;2023-03-16T16:18:45;4.73;;;4.30;;